Terminal Aerodrome Forecast
Issued by NWS Charleston, WV

Home | Current Version | Previous Version | Text Only | Print | Product List | Glossary On
Versions: 1 2 3 4 5 6 7 8 9 10 11 12 13 14 15 16 17 18 19 20 21 22
000
FTUS41 KRLX 120843 AAA
TAFEKN
TAF AMD
KEKN 120843Z 1209/1306 24010G16KT P6SM BKN060
     FM121000 25011G18KT P6SM BKN040
     FM121200 25011G20KT 3SM -SHSN OVC012
     FM121500 27014G24KT 2SM -SHSN BLSN BKN008 OVC012
     FM130300 29013G27KT 3SM -SHSN OVC025=

USA.gov is the U.S. government's official web portal to all federal, state and local government web resources and services.